Girona, Spain

5:58 AM CEST on September 05, 2015 (GMT +0200)
Salitja - Mas Bes | | Change Station
CLOSE
Current Station
Personal Weather Station
Location: Vilobi d'Onyar, CT
Elevation: 279 ft
Nearby Weather Stations

Elev 279 ft 41.91 °N, 2.74 °E | Updated 2 minutes ago

Partly Cloudy
Partly Cloudy
57.4 °F
Feels Like 57.4 °F
N
0.0
Wind Variable Wind from WNW
Gusts 0.0 mph

Today
High -- | Low -- °F
--% Chance of Precip.
Yesterday
High -- | Low -- °F
Precip. -- in
7:18 AM 8:16 PM
Waning Gibbous, 53% visible
Pressure 30.04 in
Visibility 3.7 miles
Clouds Few 1000 ft
Dew Point 55 °F
Humidity 92%
Rainfall 0.00 in
Snow Depth Not available.
UV 0 out of 12
Pollen Not available.
Air Quality Not available.
Flu Activity Not available.
METAR LEGE 050330Z 00000KT 6000 FEW010 14/14 Q1017
Pressure 30.04 in
Visibility 3.7 miles
Clouds Few 1000 ft
Dew Point 55 °F
Humidity 92%
Rainfall 0.00 in
Snow Depth Not available.
UV 0 out of 12
Pollen Not available.
Air Quality Not available.
Flu Activity Not available.
METAR LEGE 050330Z 00000KT 6000 FEW010 14/14 Q1017

10-Day Weather Forecast

×

Almanac

Astronomy

Sep. 05, 2015 Rise Set
Actual Time
Civil Twilight
Nautical Twilight
Astronomical Twilight
Moon
Length of Visible Light
Length of Day
Tomorrow will be .
, % of the Moon is Illuminated

Today's Extremes

Country Highs Country Lows

Community

WunderPhotos

Upload Photos

1,852,408 photos uploaded!

WunderBlogs® & News

Nearby

Air Quality

  Air Quality AQ Index Pollutant
Not available.

Snow Depth

Station Depth Elevation

Earthquake Activity

City Distance Mag. Time & Date
Minimum magnitude displayed is 2.5.

Coastal Water Temperatures

Place Temperature

Stations

Nearby Weather Stations

Station Location Temp. Windchill Dew Point Humidity Wind Precip. Elev Updated Type